sensor_id;sensor_type;location;lat;lon;timestamp;P1;durP1;ratioP1;P2;durP2;ratioP2
20511;SDS011;10414;52.074;5.126;2023-11-18T00:01:58;41.60;;;18.65;;
20511;SDS011;10414;52.074;5.126;2023-11-18T00:04:25;44.88;;;19.75;;
20511;SDS011;10414;52.074;5.126;2023-11-18T00:06:53;44.83;;;19.90;;
20511;SDS011;10414;52.074;5.126;2023-11-18T00:09:22;44.90;;;20.73;;
20511;SDS011;10414;52.074;5.126;2023-11-18T00:11:49;41.33;;;18.98;;
20511;SDS011;10414;52.074;5.126;2023-11-18T00:14:16;40.88;;;17.40;;
20511;SDS011;10414;52.074;5.126;2023-11-18T00:16:45;49.63;;;19.60;;
20511;SDS011;10414;52.074;5.126;2023-11-18T00:19:12;44.60;;;18.23;;
20511;SDS011;10414;52.074;5.126;2023-11-18T00:21:42;46.60;;;19.88;;
20511;SDS011;10414;52.074;5.126;2023-11-18T00:24:10;46.22;;;19.85;;
20511;SDS011;10414;52.074;5.126;2023-11-18T00:26:38;41.75;;;18.60;;
20511;SDS011;10414;52.074;5.126;2023-11-18T00:29:05;40.78;;;18.35;;
20511;SDS011;10414;52.074;5.126;2023-11-18T00:31:32;45.08;;;19.83;;
20511;SDS011;10414;52.074;5.126;2023-11-18T00:34:04;39.92;;;18.13;;
20511;SDS011;10414;52.074;5.126;2023-11-18T00:36:31;39.20;;;16.98;;
20511;SDS011;10414;52.074;5.126;2023-11-18T00:38:58;43.35;;;19.23;;
20511;SDS011;10414;52.074;5.126;2023-11-18T00:41:26;40.78;;;18.75;;
20511;SDS011;10414;52.074;5.126;2023-11-18T00:43:52;44.58;;;19.60;;
20511;SDS011;10414;52.074;5.126;2023-11-18T00:46:22;40.53;;;18.85;;
20511;SDS011;10414;52.074;5.126;2023-11-18T00:48:49;45.42;;;19.20;;
20511;SDS011;10414;52.074;5.126;2023-11-18T00:51:16;42.97;;;18.45;;
20511;SDS011;10414;52.074;5.126;2023-11-18T00:54:03;42.15;;;18.65;;
20511;SDS011;10414;52.074;5.126;2023-11-18T00:56:32;46.88;;;19.92;;
20511;SDS011;10414;52.074;5.126;2023-11-18T00:58:59;44.15;;;18.67;;
20511;SDS011;10414;52.074;5.126;2023-11-18T01:01:26;44.28;;;18.48;;
20511;SDS011;10414;52.074;5.126;2023-11-18T01:03:53;42.88;;;17.40;;
20511;SDS011;10414;52.074;5.126;2023-11-18T01:06:20;42.00;;;17.55;;
20511;SDS011;10414;52.074;5.126;2023-11-18T01:08:47;43.40;;;19.27;;
20511;SDS011;10414;52.074;5.126;2023-11-18T01:11:15;44.28;;;19.02;;
20511;SDS011;10414;52.074;5.126;2023-11-18T01:13:45;42.33;;;18.00;;
20511;SDS011;10414;52.074;5.126;2023-11-18T01:16:12;39.90;;;17.13;;
20511;SDS011;10414;52.074;5.126;2023-11-18T01:18:39;46.40;;;20.38;;
20511;SDS011;10414;52.074;5.126;2023-11-18T01:21:06;39.67;;;18.55;;
20511;SDS011;10414;52.074;5.126;2023-11-18T01:23:34;46.63;;;19.17;;
20511;SDS011;10414;52.074;5.126;2023-11-18T01:26:02;39.03;;;17.83;;
20511;SDS011;10414;52.074;5.126;2023-11-18T01:28:30;37.75;;;18.73;;
20511;SDS011;10414;52.074;5.126;2023-11-18T01:31:03;38.70;;;17.80;;
20511;SDS011;10414;52.074;5.126;2023-11-18T01:33:31;41.35;;;19.38;;
20511;SDS011;10414;52.074;5.126;2023-11-18T01:35:57;41.95;;;18.15;;
20511;SDS011;10414;52.074;5.126;2023-11-18T01:38:28;41.80;;;17.95;;
20511;SDS011;10414;52.074;5.126;2023-11-18T01:40:55;41.05;;;17.90;;
20511;SDS011;10414;52.074;5.126;2023-11-18T01:43:22;44.58;;;18.23;;
20511;SDS011;10414;52.074;5.126;2023-11-18T01:45:50;40.70;;;18.42;;
20511;SDS011;10414;52.074;5.126;2023-11-18T01:48:19;37.78;;;17.52;;
20511;SDS011;10414;52.074;5.126;2023-11-18T01:50:47;46.67;;;18.10;;
20511;SDS011;10414;52.074;5.126;2023-11-18T01:53:16;34.78;;;16.70;;
20511;SDS011;10414;52.074;5.126;2023-11-18T01:55:44;44.15;;;19.27;;
20511;SDS011;10414;52.074;5.126;2023-11-18T01:58:12;48.30;;;20.60;;
20511;SDS011;10414;52.074;5.126;2023-11-18T02:00:45;40.13;;;18.00;;
20511;SDS011;10414;52.074;5.126;2023-11-18T02:03:12;48.88;;;19.25;;
20511;SDS011;10414;52.074;5.126;2023-11-18T02:05:40;43.20;;;19.70;;
20511;SDS011;10414;52.074;5.126;2023-11-18T02:08:13;37.10;;;18.73;;
20511;SDS011;10414;52.074;5.126;2023-11-18T02:10:45;37.85;;;18.02;;
20511;SDS011;10414;52.074;5.126;2023-11-18T02:13:18;47.65;;;18.58;;
20511;SDS011;10414;52.074;5.126;2023-11-18T02:15:52;43.40;;;18.52;;
20511;SDS011;10414;52.074;5.126;2023-11-18T02:18:23;38.65;;;16.48;;
20511;SDS011;10414;52.074;5.126;2023-11-18T02:20:54;43.67;;;18.63;;
20511;SDS011;10414;52.074;5.126;2023-11-18T02:23:22;43.08;;;19.63;;
20511;SDS011;10414;52.074;5.126;2023-11-18T02:25:55;42.58;;;18.80;;
20511;SDS011;10414;52.074;5.126;2023-11-18T02:28:22;39.90;;;17.30;;
20511;SDS011;10414;52.074;5.126;2023-11-18T02:30:50;40.05;;;17.52;;
20511;SDS011;10414;52.074;5.126;2023-11-18T02:33:22;39.05;;;18.85;;
20511;SDS011;10414;52.074;5.126;2023-11-18T02:36:08;36.05;;;16.83;;
20511;SDS011;10414;52.074;5.126;2023-11-18T02:38:42;46.92;;;20.02;;
20511;SDS011;10414;52.074;5.126;2023-11-18T02:41:21;44.63;;;19.67;;
20511;SDS011;10414;52.074;5.126;2023-11-18T02:43:50;42.60;;;20.10;;
20511;SDS011;10414;52.074;5.126;2023-11-18T02:46:17;43.25;;;20.33;;
20511;SDS011;10414;52.074;5.126;2023-11-18T02:48:46;40.20;;;19.13;;
20511;SDS011;10414;52.074;5.126;2023-11-18T02:51:13;43.63;;;19.33;;
20511;SDS011;10414;52.074;5.126;2023-11-18T02:53:41;47.25;;;21.13;;
20511;SDS011;10414;52.074;5.126;2023-11-18T02:56:10;44.92;;;19.48;;
20511;SDS011;10414;52.074;5.126;2023-11-18T02:58:41;47.03;;;20.75;;
20511;SDS011;10414;52.074;5.126;2023-11-18T03:01:08;43.30;;;19.75;;
20511;SDS011;10414;52.074;5.126;2023-11-18T03:03:34;40.83;;;20.17;;
20511;SDS011;10414;52.074;5.126;2023-11-18T03:06:05;44.63;;;20.65;;
20511;SDS011;10414;52.074;5.126;2023-11-18T03:08:32;48.80;;;21.48;;
20511;SDS011;10414;52.074;5.126;2023-11-18T03:10:59;47.05;;;22.05;;
20511;SDS011;10414;52.074;5.126;2023-11-18T03:13:27;43.20;;;20.15;;
20511;SDS011;10414;52.074;5.126;2023-11-18T03:15:55;51.38;;;20.73;;
20511;SDS011;10414;52.074;5.126;2023-11-18T03:18:22;52.53;;;22.20;;
20511;SDS011;10414;52.074;5.126;2023-11-18T03:20:49;48.53;;;21.45;;
20511;SDS011;10414;52.074;5.126;2023-11-18T03:23:16;41.75;;;20.77;;
20511;SDS011;10414;52.074;5.126;2023-11-18T03:25:44;46.75;;;20.90;;
20511;SDS011;10414;52.074;5.126;2023-11-18T03:28:11;46.97;;;21.65;;
20511;SDS011;10414;52.074;5.126;2023-11-18T03:30:39;47.10;;;21.70;;
20511;SDS011;10414;52.074;5.126;2023-11-18T03:33:09;47.65;;;21.20;;
20511;SDS011;10414;52.074;5.126;2023-11-18T03:35:36;43.83;;;21.02;;
20511;SDS011;10414;52.074;5.126;2023-11-18T03:38:03;48.85;;;21.75;;
20511;SDS011;10414;52.074;5.126;2023-11-18T03:40:30;46.88;;;21.15;;
20511;SDS011;10414;52.074;5.126;2023-11-18T03:43:00;45.47;;;20.97;;
20511;SDS011;10414;52.074;5.126;2023-11-18T03:45:28;43.35;;;21.10;;
20511;SDS011;10414;52.074;5.126;2023-11-18T03:47:58;49.15;;;21.83;;
20511;SDS011;10414;52.074;5.126;2023-11-18T03:50:27;45.40;;;20.05;;
20511;SDS011;10414;52.074;5.126;2023-11-18T03:52:54;46.22;;;20.65;;
20511;SDS011;10414;52.074;5.126;2023-11-18T03:55:21;43.22;;;21.42;;
20511;SDS011;10414;52.074;5.126;2023-11-18T03:57:51;46.45;;;22.88;;
20511;SDS011;10414;52.074;5.126;2023-11-18T04:00:19;45.58;;;20.80;;
20511;SDS011;10414;52.074;5.126;2023-11-18T04:02:46;44.00;;;21.35;;
20511;SDS011;10414;52.074;5.126;2023-11-18T04:05:13;51.92;;;20.40;;
20511;SDS011;10414;52.074;5.126;2023-11-18T04:07:41;43.08;;;19.98;;
20511;SDS011;10414;52.074;5.126;2023-11-18T04:10:11;42.72;;;20.33;;
20511;SDS011;10414;52.074;5.126;2023-11-18T04:12:38;46.85;;;22.58;;
20511;SDS011;10414;52.074;5.126;2023-11-18T04:15:05;48.45;;;20.92;;
20511;SDS011;10414;52.074;5.126;2023-11-18T04:17:33;47.38;;;21.55;;
20511;SDS011;10414;52.074;5.126;2023-11-18T04:20:00;46.63;;;22.15;;
20511;SDS011;10414;52.074;5.126;2023-11-18T04:22:30;42.78;;;19.75;;
20511;SDS011;10414;52.074;5.126;2023-11-18T04:24:58;45.33;;;19.83;;
20511;SDS011;10414;52.074;5.126;2023-11-18T04:27:25;41.92;;;19.83;;
20511;SDS011;10414;52.074;5.126;2023-11-18T04:29:59;44.22;;;20.73;;
20511;SDS011;10414;52.074;5.126;2023-11-18T04:32:26;44.88;;;22.10;;
20511;SDS011;10414;52.074;5.126;2023-11-18T04:34:57;45.15;;;20.75;;
20511;SDS011;10414;52.074;5.126;2023-11-18T04:37:24;46.22;;;21.65;;
20511;SDS011;10414;52.074;5.126;2023-11-18T04:39:51;42.28;;;20.35;;
20511;SDS011;10414;52.074;5.126;2023-11-18T04:42:24;42.13;;;19.17;;
20511;SDS011;10414;52.074;5.126;2023-11-18T04:44:50;46.92;;;21.08;;
20511;SDS011;10414;52.074;5.126;2023-11-18T04:47:17;45.42;;;20.30;;
20511;SDS011;10414;52.074;5.126;2023-11-18T04:49:44;47.67;;;20.75;;
20511;SDS011;10414;52.074;5.126;2023-11-18T04:52:11;39.97;;;18.55;;
20511;SDS011;10414;52.074;5.126;2023-11-18T04:54:38;41.72;;;20.05;;
20511;SDS011;10414;52.074;5.126;2023-11-18T04:57:04;42.17;;;18.90;;
20511;SDS011;10414;52.074;5.126;2023-11-18T04:59:36;39.88;;;19.48;;
20511;SDS011;10414;52.074;5.126;2023-11-18T05:02:02;39.85;;;19.90;;
20511;SDS011;10414;52.074;5.126;2023-11-18T05:04:31;46.75;;;19.48;;
20511;SDS011;10414;52.074;5.126;2023-11-18T05:06:58;43.08;;;18.80;;
20511;SDS011;10414;52.074;5.126;2023-11-18T05:09:29;42.40;;;18.25;;
20511;SDS011;10414;52.074;5.126;2023-11-18T05:11:57;44.17;;;18.02;;
20511;SDS011;10414;52.074;5.126;2023-11-18T05:14:24;40.10;;;18.00;;
20511;SDS011;10414;52.074;5.126;2023-11-18T05:16:52;40.47;;;18.25;;
20511;SDS011;10414;52.074;5.126;2023-11-18T05:19:19;39.70;;;18.38;;
20511;SDS011;10414;52.074;5.126;2023-11-18T05:21:50;37.70;;;16.13;;
20511;SDS011;10414;52.074;5.126;2023-11-18T05:24:19;35.72;;;16.42;;
20511;SDS011;10414;52.074;5.126;2023-11-18T05:26:47;36.50;;;17.08;;
20511;SDS011;10414;52.074;5.126;2023-11-18T05:29:14;36.17;;;16.55;;
20511;SDS011;10414;52.074;5.126;2023-11-18T05:31:46;38.58;;;17.52;;
20511;SDS011;10414;52.074;5.126;2023-11-18T05:34:15;39.63;;;17.67;;
20511;SDS011;10414;52.074;5.126;2023-11-18T05:36:46;39.70;;;17.30;;
20511;SDS011;10414;52.074;5.126;2023-11-18T05:39:16;42.20;;;17.98;;
20511;SDS011;10414;52.074;5.126;2023-11-18T05:41:45;37.17;;;16.85;;
20511;SDS011;10414;52.074;5.126;2023-11-18T05:44:15;41.28;;;17.13;;
20511;SDS011;10414;52.074;5.126;2023-11-18T05:46:44;35.22;;;16.45;;
20511;SDS011;10414;52.074;5.126;2023-11-18T05:49:12;42.80;;;16.40;;
20511;SDS011;10414;52.074;5.126;2023-11-18T05:51:41;38.03;;;16.15;;
20511;SDS011;10414;52.074;5.126;2023-11-18T05:54:07;37.70;;;16.08;;
20511;SDS011;10414;52.074;5.126;2023-11-18T05:56:34;34.53;;;14.38;;
20511;SDS011;10414;52.074;5.126;2023-11-18T05:59:03;34.00;;;15.88;;
20511;SDS011;10414;52.074;5.126;2023-11-18T06:01:33;36.53;;;15.85;;
20511;SDS011;10414;52.074;5.126;2023-11-18T06:04:02;41.92;;;16.10;;
20511;SDS011;10414;52.074;5.126;2023-11-18T06:06:30;33.70;;;16.55;;
20511;SDS011;10414;52.074;5.126;2023-11-18T06:09:00;34.53;;;15.50;;
20511;SDS011;10414;52.074;5.126;2023-11-18T06:11:30;35.90;;;16.70;;
20511;SDS011;10414;52.074;5.126;2023-11-18T06:14:00;35.70;;;16.42;;
20511;SDS011;10414;52.074;5.126;2023-11-18T06:16:33;32.22;;;15.15;;
20511;SDS011;10414;52.074;5.126;2023-11-18T06:19:00;38.75;;;16.85;;
20511;SDS011;10414;52.074;5.126;2023-11-18T06:21:31;38.45;;;17.65;;
20511;SDS011;10414;52.074;5.126;2023-11-18T06:23:58;40.67;;;17.38;;
20511;SDS011;10414;52.074;5.126;2023-11-18T06:26:26;41.95;;;17.52;;
20511;SDS011;10414;52.074;5.126;2023-11-18T06:28:55;42.78;;;15.93;;
20511;SDS011;10414;52.074;5.126;2023-11-18T06:31:25;35.67;;;16.10;;
20511;SDS011;10414;52.074;5.126;2023-11-18T06:33:55;39.45;;;16.17;;
20511;SDS011;10414;52.074;5.126;2023-11-18T06:36:25;33.38;;;15.52;;
20511;SDS011;10414;52.074;5.126;2023-11-18T06:38:55;32.78;;;16.13;;
20511;SDS011;10414;52.074;5.126;2023-11-18T06:41:24;43.20;;;17.33;;
20511;SDS011;10414;52.074;5.126;2023-11-18T06:43:58;38.75;;;16.33;;
20511;SDS011;10414;52.074;5.126;2023-11-18T06:46:34;35.40;;;15.77;;
20511;SDS011;10414;52.074;5.126;2023-11-18T06:51:33;35.25;;;15.52;;
20511;SDS011;10414;52.074;5.126;2023-11-18T06:54:04;32.97;;;15.88;;
20511;SDS011;10414;52.074;5.126;2023-11-18T06:56:34;34.72;;;16.15;;
20511;SDS011;10414;52.074;5.126;2023-11-18T06:59:05;36.15;;;16.13;;
20511;SDS011;10414;52.074;5.126;2023-11-18T07:01:34;39.95;;;15.65;;
20511;SDS011;10414;52.074;5.126;2023-11-18T07:04:01;34.10;;;14.82;;
20511;SDS011;10414;52.074;5.126;2023-11-18T07:06:28;31.60;;;15.35;;
20511;SDS011;10414;52.074;5.126;2023-11-18T07:08:56;34.60;;;15.38;;
20511;SDS011;10414;52.074;5.126;2023-11-18T07:11:29;32.70;;;15.52;;
20511;SDS011;10414;52.074;5.126;2023-11-18T07:13:58;37.33;;;15.93;;
20511;SDS011;10414;52.074;5.126;2023-11-18T07:16:25;38.25;;;14.57;;
20511;SDS011;10414;52.074;5.126;2023-11-18T07:18:54;28.80;;;14.23;;
20511;SDS011;10414;52.074;5.126;2023-11-18T07:21:22;31.95;;;15.02;;
20511;SDS011;10414;52.074;5.126;2023-11-18T07:23:49;32.33;;;14.63;;
20511;SDS011;10414;52.074;5.126;2023-11-18T07:26:17;28.48;;;13.65;;
20511;SDS011;10414;52.074;5.126;2023-11-18T07:28:45;32.88;;;14.88;;
20511;SDS011;10414;52.074;5.126;2023-11-18T07:31:15;29.30;;;13.25;;
20511;SDS011;10414;52.074;5.126;2023-11-18T07:33:47;33.85;;;14.35;;
20511;SDS011;10414;52.074;5.126;2023-11-18T07:36:17;33.03;;;13.13;;
20511;SDS011;10414;52.074;5.126;2023-11-18T07:38:45;30.35;;;14.25;;
20511;SDS011;10414;52.074;5.126;2023-11-18T07:41:14;28.85;;;13.60;;
20511;SDS011;10414;52.074;5.126;2023-11-18T07:43:50;31.05;;;14.15;;
20511;SDS011;10414;52.074;5.126;2023-11-18T07:46:19;32.80;;;14.50;;
20511;SDS011;10414;52.074;5.126;2023-11-18T07:48:47;27.33;;;13.40;;
20511;SDS011;10414;52.074;5.126;2023-11-18T07:51:17;28.35;;;13.18;;
20511;SDS011;10414;52.074;5.126;2023-11-18T07:53:46;30.83;;;13.95;;
20511;SDS011;10414;52.074;5.126;2023-11-18T07:56:13;30.52;;;13.30;;
20511;SDS011;10414;52.074;5.126;2023-11-18T07:58:41;34.42;;;13.93;;
20511;SDS011;10414;52.074;5.126;2023-11-18T08:01:11;26.60;;;13.27;;
20511;SDS011;10414;52.074;5.126;2023-11-18T08:06:10;26.80;;;12.30;;
20511;SDS011;10414;52.074;5.126;2023-11-18T08:08:38;28.85;;;12.13;;
20511;SDS011;10414;52.074;5.126;2023-11-18T08:11:06;26.33;;;12.45;;
20511;SDS011;10414;52.074;5.126;2023-11-18T08:13:33;28.52;;;12.38;;
20511;SDS011;10414;52.074;5.126;2023-11-18T08:16:00;28.50;;;11.82;;
20511;SDS011;10414;52.074;5.126;2023-11-18T08:18:28;29.90;;;13.25;;
20511;SDS011;10414;52.074;5.126;2023-11-18T08:20:56;28.27;;;12.30;;
20511;SDS011;10414;52.074;5.126;2023-11-18T08:23:25;25.83;;;12.57;;
20511;SDS011;10414;52.074;5.126;2023-11-18T08:25:53;26.05;;;12.38;;
20511;SDS011;10414;52.074;5.126;2023-11-18T08:28:22;26.97;;;13.07;;
20511;SDS011;10414;52.074;5.126;2023-11-18T08:30:49;33.40;;;13.23;;
20511;SDS011;10414;52.074;5.126;2023-11-18T08:33:18;23.13;;;11.00;;
20511;SDS011;10414;52.074;5.126;2023-11-18T08:35:48;32.08;;;12.20;;
20511;SDS011;10414;52.074;5.126;2023-11-18T08:38:17;23.05;;;11.25;;
20511;SDS011;10414;52.074;5.126;2023-11-18T08:40:44;23.27;;;11.48;;
20511;SDS011;10414;52.074;5.126;2023-11-18T08:43:13;22.08;;;11.05;;
20511;SDS011;10414;52.074;5.126;2023-11-18T08:45:41;24.58;;;10.63;;
20511;SDS011;10414;52.074;5.126;2023-11-18T08:48:08;26.35;;;12.05;;
20511;SDS011;10414;52.074;5.126;2023-11-18T08:50:36;24.80;;;11.15;;
20511;SDS011;10414;52.074;5.126;2023-11-18T08:53:06;25.10;;;10.57;;
20511;SDS011;10414;52.074;5.126;2023-11-18T08:55:39;22.00;;;10.18;;
20511;SDS011;10414;52.074;5.126;2023-11-18T08:58:12;23.15;;;9.98;;
20511;SDS011;10414;52.074;5.126;2023-11-18T09:00:44;23.83;;;9.38;;
20511;SDS011;10414;52.074;5.126;2023-11-18T09:03:18;22.27;;;10.45;;
20511;SDS011;10414;52.074;5.126;2023-11-18T09:05:54;22.70;;;9.90;;
20511;SDS011;10414;52.074;5.126;2023-11-18T09:08:33;19.83;;;10.13;;
20511;SDS011;10414;52.074;5.126;2023-11-18T09:11:01;19.85;;;9.48;;
20511;SDS011;10414;52.074;5.126;2023-11-18T09:13:30;20.45;;;9.75;;
20511;SDS011;10414;52.074;5.126;2023-11-18T09:15:59;20.08;;;9.43;;
20511;SDS011;10414;52.074;5.126;2023-11-18T09:18:28;21.08;;;9.02;;
20511;SDS011;10414;52.074;5.126;2023-11-18T09:20:58;19.73;;;8.32;;
20511;SDS011;10414;52.074;5.126;2023-11-18T09:23:31;18.58;;;8.90;;
20511;SDS011;10414;52.074;5.126;2023-11-18T09:25:59;15.35;;;7.53;;
20511;SDS011;10414;52.074;5.126;2023-11-18T09:28:27;19.55;;;9.18;;
20511;SDS011;10414;52.074;5.126;2023-11-18T09:30:54;16.02;;;7.60;;
20511;SDS011;10414;52.074;5.126;2023-11-18T09:33:23;20.80;;;8.45;;
20511;SDS011;10414;52.074;5.126;2023-11-18T09:36:00;21.10;;;7.85;;
20511;SDS011;10414;52.074;5.126;2023-11-18T09:38:28;20.65;;;7.95;;
20511;SDS011;10414;52.074;5.126;2023-11-18T09:40:57;14.52;;;7.28;;
20511;SDS011;10414;52.074;5.126;2023-11-18T09:43:28;19.25;;;7.75;;
20511;SDS011;10414;52.074;5.126;2023-11-18T09:46:03;17.75;;;8.20;;
20511;SDS011;10414;52.074;5.126;2023-11-18T09:48:39;24.83;;;8.80;;
20511;SDS011;10414;52.074;5.126;2023-11-18T09:51:10;16.80;;;7.32;;
20511;SDS011;10414;52.074;5.126;2023-11-18T09:53:46;17.20;;;7.47;;
20511;SDS011;10414;52.074;5.126;2023-11-18T09:56:21;18.75;;;7.50;;
20511;SDS011;10414;52.074;5.126;2023-11-18T09:59:04;20.00;;;8.05;;
20511;SDS011;10414;52.074;5.126;2023-11-18T10:01:40;17.13;;;7.53;;
20511;SDS011;10414;52.074;5.126;2023-11-18T10:04:09;16.92;;;7.47;;
20511;SDS011;10414;52.074;5.126;2023-11-18T10:06:37;17.70;;;7.43;;
20511;SDS011;10414;52.074;5.126;2023-11-18T10:09:06;18.55;;;8.07;;
20511;SDS011;10414;52.074;5.126;2023-11-18T10:11:43;16.75;;;7.25;;
20511;SDS011;10414;52.074;5.126;2023-11-18T10:14:11;18.80;;;7.28;;
20511;SDS011;10414;52.074;5.126;2023-11-18T10:16:41;21.25;;;7.22;;
20511;SDS011;10414;52.074;5.126;2023-11-18T10:19:11;23.10;;;7.63;;
20511;SDS011;10414;52.074;5.126;2023-11-18T10:21:38;12.93;;;6.15;;
20511;SDS011;10414;52.074;5.126;2023-11-18T10:24:07;17.73;;;6.53;;
20511;SDS011;10414;52.074;5.126;2023-11-18T10:26:40;17.85;;;5.72;;
20511;SDS011;10414;52.074;5.126;2023-11-18T10:29:10;13.77;;;5.13;;
20511;SDS011;10414;52.074;5.126;2023-11-18T10:31:41;17.23;;;6.72;;
20511;SDS011;10414;52.074;5.126;2023-11-18T10:34:11;19.83;;;4.45;;
20511;SDS011;10414;52.074;5.126;2023-11-18T10:36:40;12.05;;;5.03;;
20511;SDS011;10414;52.074;5.126;2023-11-18T10:39:10;12.35;;;4.60;;
20511;SDS011;10414;52.074;5.126;2023-11-18T10:41:43;14.35;;;4.57;;
20511;SDS011;10414;52.074;5.126;2023-11-18T10:44:12;9.23;;;4.30;;
20511;SDS011;10414;52.074;5.126;2023-11-18T10:46:50;12.88;;;4.60;;
20511;SDS011;10414;52.074;5.126;2023-11-18T10:49:23;17.60;;;4.32;;
20511;SDS011;10414;52.074;5.126;2023-11-18T10:51:50;10.23;;;3.15;;
20511;SDS011;10414;52.074;5.126;2023-11-18T10:54:17;14.75;;;4.05;;
20511;SDS011;10414;52.074;5.126;2023-11-18T10:56:52;10.30;;;4.03;;
20511;SDS011;10414;52.074;5.126;2023-11-18T10:59:21;8.88;;;4.05;;
20511;SDS011;10414;52.074;5.126;2023-11-18T11:01:48;7.10;;;3.38;;
20511;SDS011;10414;52.074;5.126;2023-11-18T11:04:16;12.32;;;4.65;;
20511;SDS011;10414;52.074;5.126;2023-11-18T11:06:46;12.55;;;4.72;;
20511;SDS011;10414;52.074;5.126;2023-11-18T11:09:17;11.68;;;4.20;;
20511;SDS011;10414;52.074;5.126;2023-11-18T11:11:52;8.98;;;4.13;;
20511;SDS011;10414;52.074;5.126;2023-11-18T11:16:51;11.10;;;3.90;;
20511;SDS011;10414;52.074;5.126;2023-11-18T11:19:21;9.70;;;4.15;;
20511;SDS011;10414;52.074;5.126;2023-11-18T11:21:55;9.10;;;3.83;;
20511;SDS011;10414;52.074;5.126;2023-11-18T11:24:35;13.50;;;5.32;;
20511;SDS011;10414;52.074;5.126;2023-11-18T11:27:17;13.27;;;4.70;;
20511;SDS011;10414;52.074;5.126;2023-11-18T11:29:55;12.70;;;4.78;;
20511;SDS011;10414;52.074;5.126;2023-11-18T11:32:35;10.50;;;4.85;;
20511;SDS011;10414;52.074;5.126;2023-11-18T11:35:07;12.45;;;5.20;;
20511;SDS011;10414;52.074;5.126;2023-11-18T11:37:44;13.00;;;4.25;;
20511;SDS011;10414;52.074;5.126;2023-11-18T11:40:12;12.10;;;4.47;;
20511;SDS011;10414;52.074;5.126;2023-11-18T11:42:48;8.73;;;3.65;;
20511;SDS011;10414;52.074;5.126;2023-11-18T11:45:21;13.98;;;4.57;;
20511;SDS011;10414;52.074;5.126;2023-11-18T11:47:53;15.30;;;4.10;;
20511;SDS011;10414;52.074;5.126;2023-11-18T11:50:37;12.48;;;4.03;;
20511;SDS011;10414;52.074;5.126;2023-11-18T11:53:19;13.30;;;4.30;;
20511;SDS011;10414;52.074;5.126;2023-11-18T11:55:50;14.32;;;4.22;;
20511;SDS011;10414;52.074;5.126;2023-11-18T11:58:26;8.00;;;3.60;;
20511;SDS011;10414;52.074;5.126;2023-11-18T12:01:00;14.82;;;4.05;;
20511;SDS011;10414;52.074;5.126;2023-11-18T12:03:32;14.25;;;3.65;;
20511;SDS011;10414;52.074;5.126;2023-11-18T12:06:05;11.40;;;3.65;;
20511;SDS011;10414;52.074;5.126;2023-11-18T12:08:35;15.40;;;4.32;;
20511;SDS011;10414;52.074;5.126;2023-11-18T12:11:02;11.55;;;3.90;;
20511;SDS011;10414;52.074;5.126;2023-11-18T12:13:36;10.25;;;3.97;;
20511;SDS011;10414;52.074;5.126;2023-11-18T12:18:35;12.57;;;4.73;;
20511;SDS011;10414;52.074;5.126;2023-11-18T12:21:02;9.55;;;4.10;;
20511;SDS011;10414;52.074;5.126;2023-11-18T12:23:30;12.05;;;4.15;;
20511;SDS011;10414;52.074;5.126;2023-11-18T12:25:59;14.80;;;4.60;;
20511;SDS011;10414;52.074;5.126;2023-11-18T12:28:31;10.55;;;4.25;;
20511;SDS011;10414;52.074;5.126;2023-11-18T12:31:04;8.30;;;4.10;;
20511;SDS011;10414;52.074;5.126;2023-11-18T12:36:44;7.53;;;3.60;;
20511;SDS011;10414;52.074;5.126;2023-11-18T12:42:52;10.00;;;4.25;;
20511;SDS011;10414;52.074;5.126;2023-11-18T12:48:21;8.38;;;3.30;;
20511;SDS011;10414;52.074;5.126;2023-11-18T12:50:52;8.88;;;3.38;;
20511;SDS011;10414;52.074;5.126;2023-11-18T12:53:21;10.18;;;3.72;;
20511;SDS011;10414;52.074;5.126;2023-11-18T12:55:50;7.55;;;3.75;;
20511;SDS011;10414;52.074;5.126;2023-11-18T12:58:18;7.85;;;3.40;;
20511;SDS011;10414;52.074;5.126;2023-11-18T13:00:48;8.32;;;3.90;;
20511;SDS011;10414;52.074;5.126;2023-11-18T13:03:15;10.38;;;3.33;;
20511;SDS011;10414;52.074;5.126;2023-11-18T13:05:44;9.00;;;3.40;;
20511;SDS011;10414;52.074;5.126;2023-11-18T13:08:11;9.93;;;3.35;;
20511;SDS011;10414;52.074;5.126;2023-11-18T13:10:43;9.32;;;2.60;;
20511;SDS011;10414;52.074;5.126;2023-11-18T13:13:10;8.70;;;3.00;;
20511;SDS011;10414;52.074;5.126;2023-11-18T13:15:40;8.65;;;3.20;;
20511;SDS011;10414;52.074;5.126;2023-11-18T13:18:07;5.97;;;2.70;;
20511;SDS011;10414;52.074;5.126;2023-11-18T13:20:40;8.68;;;3.22;;
20511;SDS011;10414;52.074;5.126;2023-11-18T13:23:10;9.35;;;2.80;;
20511;SDS011;10414;52.074;5.126;2023-11-18T13:25:37;6.05;;;2.63;;
20511;SDS011;10414;52.074;5.126;2023-11-18T13:28:07;7.35;;;3.05;;
20511;SDS011;10414;52.074;5.126;2023-11-18T13:30:35;9.15;;;2.60;;
20511;SDS011;10414;52.074;5.126;2023-11-18T13:33:06;5.93;;;2.97;;
20511;SDS011;10414;52.074;5.126;2023-11-18T13:35:34;6.70;;;2.75;;
20511;SDS011;10414;52.074;5.126;2023-11-18T13:38:01;6.05;;;2.30;;
20511;SDS011;10414;52.074;5.126;2023-11-18T13:40:42;5.47;;;2.25;;
20511;SDS011;10414;52.074;5.126;2023-11-18T13:43:09;6.85;;;2.47;;
20511;SDS011;10414;52.074;5.126;2023-11-18T13:45:36;7.88;;;2.10;;
20511;SDS011;10414;52.074;5.126;2023-11-18T13:48:04;6.10;;;2.60;;
20511;SDS011;10414;52.074;5.126;2023-11-18T13:50:33;6.05;;;2.47;;
20511;SDS011;10414;52.074;5.126;2023-11-18T13:53:01;4.28;;;2.40;;
20511;SDS011;10414;52.074;5.126;2023-11-18T13:55:28;5.88;;;2.40;;
20511;SDS011;10414;52.074;5.126;2023-11-18T13:57:58;6.50;;;2.67;;
20511;SDS011;10414;52.074;5.126;2023-11-18T14:00:25;4.40;;;2.00;;
20511;SDS011;10414;52.074;5.126;2023-11-18T14:02:53;4.85;;;2.17;;
20511;SDS011;10414;52.074;5.126;2023-11-18T14:05:24;4.47;;;2.10;;
20511;SDS011;10414;52.074;5.126;2023-11-18T14:07:52;6.43;;;2.00;;
20511;SDS011;10414;52.074;5.126;2023-11-18T14:10:21;5.38;;;2.08;;
20511;SDS011;10414;52.074;5.126;2023-11-18T14:13:00;5.70;;;2.22;;
20511;SDS011;10414;52.074;5.126;2023-11-18T14:15:30;6.00;;;2.33;;
20511;SDS011;10414;52.074;5.126;2023-11-18T14:18:00;5.53;;;2.33;;
20511;SDS011;10414;52.074;5.126;2023-11-18T14:20:32;3.50;;;1.75;;
20511;SDS011;10414;52.074;5.126;2023-11-18T14:23:00;3.88;;;1.90;;
20511;SDS011;10414;52.074;5.126;2023-11-18T14:25:29;5.72;;;2.13;;
20511;SDS011;10414;52.074;5.126;2023-11-18T14:27:57;5.18;;;2.17;;
20511;SDS011;10414;52.074;5.126;2023-11-18T14:32:56;5.07;;;1.80;;
20511;SDS011;10414;52.074;5.126;2023-11-18T14:35:23;4.65;;;1.90;;
20511;SDS011;10414;52.074;5.126;2023-11-18T14:37:49;4.90;;;1.98;;
20511;SDS011;10414;52.074;5.126;2023-11-18T14:40:16;4.55;;;1.80;;
20511;SDS011;10414;52.074;5.126;2023-11-18T14:42:45;6.10;;;1.90;;
20511;SDS011;10414;52.074;5.126;2023-11-18T14:45:15;4.30;;;1.90;;
20511;SDS011;10414;52.074;5.126;2023-11-18T14:47:44;3.47;;;1.65;;
20511;SDS011;10414;52.074;5.126;2023-11-18T14:50:12;6.32;;;2.28;;
20511;SDS011;10414;52.074;5.126;2023-11-18T14:52:43;6.00;;;2.30;;
20511;SDS011;10414;52.074;5.126;2023-11-18T14:55:13;3.60;;;1.88;;
20511;SDS011;10414;52.074;5.126;2023-11-18T14:57:42;3.78;;;1.80;;
20511;SDS011;10414;52.074;5.126;2023-11-18T15:00:10;3.80;;;1.77;;
20511;SDS011;10414;52.074;5.126;2023-11-18T15:02:45;3.60;;;1.40;;
20511;SDS011;10414;52.074;5.126;2023-11-18T15:05:13;3.30;;;1.70;;